METAR Data
IDs: Format: Raw Decoded Include TAF

Data at: 1631 UTC 04 Aug 2021

ETHS 041620Z 06007KT 9999 FEW050CB 21/11 Q1012 BLU+BLU TEMPO YLO